sensor_id;sensor_type;location;lat;lon;timestamp;P1;durP1;ratioP1;P2;durP2;ratioP2
60426;SDS011;46274;47.168;27.604;2022-09-03T00:18:08;8.07;;;2.65;;
60426;SDS011;46274;47.168;27.604;2022-09-03T00:24:17;4.78;;;2.05;;
60426;SDS011;46274;47.168;27.604;2022-09-03T00:30:21;7.90;;;2.45;;
60426;SDS011;46274;47.168;27.604;2022-09-03T00:36:27;5.00;;;2.38;;
60426;SDS011;46274;47.168;27.604;2022-09-03T00:42:51;5.75;;;2.33;;
60426;SDS011;46274;47.168;27.604;2022-09-03T01:33:43;6.00;;;2.65;;
60426;SDS011;46274;47.168;27.604;2022-09-03T01:40:17;8.10;;;2.97;;
60426;SDS011;46274;47.168;27.604;2022-09-03T01:46:28;8.65;;;2.58;;
60426;SDS011;46274;47.168;27.604;2022-09-03T02:05:12;5.28;;;2.60;;
60426;SDS011;46274;47.168;27.604;2022-09-03T02:11:17;5.03;;;2.50;;
60426;SDS011;46274;47.168;27.604;2022-09-03T02:17:19;4.07;;;2.40;;
60426;SDS011;46274;47.168;27.604;2022-09-03T02:23:21;4.07;;;2.20;;
60426;SDS011;46274;47.168;27.604;2022-09-03T02:29:28;5.40;;;2.78;;
60426;SDS011;46274;47.168;27.604;2022-09-03T02:35:31;6.57;;;2.25;;
60426;SDS011;46274;47.168;27.604;2022-09-03T02:41:33;4.53;;;2.08;;
60426;SDS011;46274;47.168;27.604;2022-09-03T02:47:35;10.30;;;2.50;;
60426;SDS011;46274;47.168;27.604;2022-09-03T02:53:41;5.43;;;2.50;;
60426;SDS011;46274;47.168;27.604;2022-09-03T02:59:44;6.25;;;2.60;;
60426;SDS011;46274;47.168;27.604;2022-09-03T03:05:47;5.30;;;2.38;;
60426;SDS011;46274;47.168;27.604;2022-09-03T03:11:57;5.00;;;2.28;;
60426;SDS011;46274;47.168;27.604;2022-09-03T03:17:59;12.57;;;2.72;;
60426;SDS011;46274;47.168;27.604;2022-09-03T03:24:01;5.60;;;2.42;;
60426;SDS011;46274;47.168;27.604;2022-09-03T03:30:03;5.65;;;2.58;;
60426;SDS011;46274;47.168;27.604;2022-09-03T03:36:06;4.82;;;2.53;;
60426;SDS011;46274;47.168;27.604;2022-09-03T03:42:10;5.05;;;2.85;;
60426;SDS011;46274;47.168;27.604;2022-09-03T03:48:11;4.07;;;2.55;;
60426;SDS011;46274;47.168;27.604;2022-09-03T03:54:13;7.05;;;2.83;;
60426;SDS011;46274;47.168;27.604;2022-09-03T04:00:18;5.90;;;2.08;;
60426;SDS011;46274;47.168;27.604;2022-09-03T04:06:19;6.75;;;2.92;;
60426;SDS011;46274;47.168;27.604;2022-09-03T04:12:22;4.40;;;2.50;;
60426;SDS011;46274;47.168;27.604;2022-09-03T04:18:23;4.75;;;2.53;;
60426;SDS011;46274;47.168;27.604;2022-09-03T04:24:25;4.43;;;2.45;;
60426;SDS011;46274;47.168;27.604;2022-09-03T04:30:27;5.30;;;2.20;;
60426;SDS011;46274;47.168;27.604;2022-09-03T04:36:30;5.28;;;2.50;;
60426;SDS011;46274;47.168;27.604;2022-09-03T04:42:32;3.92;;;2.08;;
60426;SDS011;46274;47.168;27.604;2022-09-03T04:48:35;6.03;;;2.20;;
60426;SDS011;46274;47.168;27.604;2022-09-03T04:54:38;8.18;;;2.35;;
60426;SDS011;46274;47.168;27.604;2022-09-03T05:00:39;4.97;;;2.08;;
60426;SDS011;46274;47.168;27.604;2022-09-03T05:06:41;6.03;;;2.30;;
60426;SDS011;46274;47.168;27.604;2022-09-03T05:12:43;6.40;;;2.30;;
60426;SDS011;46274;47.168;27.604;2022-09-03T05:18:46;3.40;;;2.15;;
60426;SDS011;46274;47.168;27.604;2022-09-03T05:24:48;5.13;;;2.30;;
60426;SDS011;46274;47.168;27.604;2022-09-03T05:31:06;7.75;;;2.05;;
60426;SDS011;46274;47.168;27.604;2022-09-03T05:37:10;6.43;;;2.17;;
60426;SDS011;46274;47.168;27.604;2022-09-03T05:43:12;4.72;;;2.20;;
60426;SDS011;46274;47.168;27.604;2022-09-03T05:49:14;13.18;;;2.97;;
60426;SDS011;46274;47.168;27.604;2022-09-03T05:55:16;6.10;;;2.25;;
60426;SDS011;46274;47.168;27.604;2022-09-03T06:01:20;13.88;;;2.90;;
60426;SDS011;46274;47.168;27.604;2022-09-03T06:07:30;14.98;;;3.55;;
60426;SDS011;46274;47.168;27.604;2022-09-03T06:13:34;15.93;;;3.53;;
60426;SDS011;46274;47.168;27.604;2022-09-03T06:19:37;17.95;;;4.03;;
60426;SDS011;46274;47.168;27.604;2022-09-03T06:25:39;14.43;;;3.50;;
60426;SDS011;46274;47.168;27.604;2022-09-03T06:31:42;9.65;;;3.45;;
60426;SDS011;46274;47.168;27.604;2022-09-03T06:37:44;18.98;;;4.47;;
60426;SDS011;46274;47.168;27.604;2022-09-03T06:43:46;19.63;;;4.05;;
60426;SDS011;46274;47.168;27.604;2022-09-03T06:49:49;22.15;;;5.47;;
60426;SDS011;46274;47.168;27.604;2022-09-03T06:56:13;21.40;;;6.57;;
60426;SDS011;46274;47.168;27.604;2022-09-03T07:02:15;34.17;;;6.43;;
60426;SDS011;46274;47.168;27.604;2022-09-03T07:08:17;26.67;;;6.15;;
60426;SDS011;46274;47.168;27.604;2022-09-03T07:14:19;50.40;;;6.45;;
60426;SDS011;46274;47.168;27.604;2022-09-03T07:20:22;37.60;;;7.38;;
60426;SDS011;46274;47.168;27.604;2022-09-03T07:26:28;39.92;;;7.40;;
60426;SDS011;46274;47.168;27.604;2022-09-03T07:32:32;38.47;;;6.35;;
60426;SDS011;46274;47.168;27.604;2022-09-03T07:38:34;38.92;;;7.60;;
60426;SDS011;46274;47.168;27.604;2022-09-03T07:44:37;40.30;;;6.93;;
60426;SDS011;46274;47.168;27.604;2022-09-03T07:50:38;46.72;;;8.43;;
60426;SDS011;46274;47.168;27.604;2022-09-03T07:56:40;49.67;;;6.93;;
60426;SDS011;46274;47.168;27.604;2022-09-03T08:02:42;32.28;;;5.88;;
60426;SDS011;46274;47.168;27.604;2022-09-03T08:08:46;22.65;;;6.43;;
60426;SDS011;46274;47.168;27.604;2022-09-03T08:14:49;54.30;;;7.35;;
60426;SDS011;46274;47.168;27.604;2022-09-03T08:20:51;43.30;;;5.85;;
60426;SDS011;46274;47.168;27.604;2022-09-03T08:26:53;34.22;;;6.88;;
60426;SDS011;46274;47.168;27.604;2022-09-03T08:32:55;38.13;;;7.53;;
60426;SDS011;46274;47.168;27.604;2022-09-03T08:38:57;37.58;;;6.63;;
60426;SDS011;46274;47.168;27.604;2022-09-03T08:45:07;38.40;;;6.88;;
60426;SDS011;46274;47.168;27.604;2022-09-03T08:51:17;30.67;;;5.35;;
60426;SDS011;46274;47.168;27.604;2022-09-03T08:57:23;28.13;;;5.13;;
60426;SDS011;46274;47.168;27.604;2022-09-03T09:09:49;33.22;;;6.10;;
60426;SDS011;46274;47.168;27.604;2022-09-03T09:22:53;38.83;;;5.22;;
60426;SDS011;46274;47.168;27.604;2022-09-03T09:29:04;40.45;;;6.15;;
60426;SDS011;46274;47.168;27.604;2022-09-03T09:35:10;45.33;;;6.93;;
60426;SDS011;46274;47.168;27.604;2022-09-03T09:41:13;35.78;;;5.60;;
60426;SDS011;46274;47.168;27.604;2022-09-03T10:02:32;8.37;;;2.50;;
60426;SDS011;46274;47.168;27.604;2022-09-03T10:08:35;13.17;;;3.47;;
60426;SDS011;46274;47.168;27.604;2022-09-03T10:21:17;11.57;;;3.10;;
60426;SDS011;46274;47.168;27.604;2022-09-03T10:27:24;6.70;;;2.70;;
60426;SDS011;46274;47.168;27.604;2022-09-03T10:33:28;7.17;;;2.73;;
60426;SDS011;46274;47.168;27.604;2022-09-03T10:45:56;10.80;;;2.50;;
60426;SDS011;46274;47.168;27.604;2022-09-03T10:52:16;8.07;;;3.60;;
60426;SDS011;46274;47.168;27.604;2022-09-03T11:05:07;9.73;;;3.00;;
60426;SDS011;46274;47.168;27.604;2022-09-03T11:11:18;7.90;;;2.63;;
60426;SDS011;46274;47.168;27.604;2022-09-03T11:17:36;6.80;;;2.90;;
60426;SDS011;46274;47.168;27.604;2022-09-03T11:23:45;7.47;;;3.33;;
60426;SDS011;46274;47.168;27.604;2022-09-03T11:30:05;6.17;;;2.97;;
60426;SDS011;46274;47.168;27.604;2022-09-03T11:36:10;5.30;;;2.57;;
60426;SDS011;46274;47.168;27.604;2022-09-03T11:42:19;4.47;;;2.83;;
60426;SDS011;46274;47.168;27.604;2022-09-03T11:48:47;7.90;;;2.67;;
60426;SDS011;46274;47.168;27.604;2022-09-03T11:54:50;7.00;;;3.10;;
60426;SDS011;46274;47.168;27.604;2022-09-03T12:00:52;9.57;;;3.03;;
60426;SDS011;46274;47.168;27.604;2022-09-03T12:07:05;4.27;;;1.83;;
60426;SDS011;46274;47.168;27.604;2022-09-03T12:25:56;4.33;;;2.40;;
60426;SDS011;46274;47.168;27.604;2022-09-03T12:32:05;9.07;;;2.50;;
60426;SDS011;46274;47.168;27.604;2022-09-03T12:38:12;3.47;;;1.77;;
60426;SDS011;46274;47.168;27.604;2022-09-03T12:44:27;7.87;;;3.20;;
60426;SDS011;46274;47.168;27.604;2022-09-03T12:50:38;7.40;;;3.37;;
60426;SDS011;46274;47.168;27.604;2022-09-03T12:56:52;27.90;;;11.77;;
60426;SDS011;46274;47.168;27.604;2022-09-03T13:02:59;12.37;;;6.10;;
60426;SDS011;46274;47.168;27.604;2022-09-03T13:09:03;5.87;;;2.83;;
60426;SDS011;46274;47.168;27.604;2022-09-03T13:15:10;5.37;;;3.00;;
60426;SDS011;46274;47.168;27.604;2022-09-03T13:33:34;5.93;;;2.43;;
60426;SDS011;46274;47.168;27.604;2022-09-03T13:39:48;7.83;;;4.43;;
60426;SDS011;46274;47.168;27.604;2022-09-03T13:52:07;14.77;;;4.43;;
60426;SDS011;46274;47.168;27.604;2022-09-03T13:58:30;5.87;;;2.53;;
60426;SDS011;46274;47.168;27.604;2022-09-03T14:05:11;6.73;;;2.20;;
60426;SDS011;46274;47.168;27.604;2022-09-03T14:23:58;6.50;;;2.50;;
60426;SDS011;46274;47.168;27.604;2022-09-03T15:14:52;5.33;;;2.30;;
60426;SDS011;46274;47.168;27.604;2022-09-03T15:27:51;8.80;;;2.53;;
60426;SDS011;46274;47.168;27.604;2022-09-03T16:12:07;4.93;;;2.40;;
60426;SDS011;46274;47.168;27.604;2022-09-03T16:24:47;5.57;;;2.57;;
60426;SDS011;46274;47.168;27.604;2022-09-03T16:38:02;6.90;;;2.63;;
60426;SDS011;46274;47.168;27.604;2022-09-03T17:16:33;12.77;;;3.70;;
60426;SDS011;46274;47.168;27.604;2022-09-03T17:35:39;8.40;;;3.97;;
60426;SDS011;46274;47.168;27.604;2022-09-03T17:54:48;6.90;;;3.70;;
60426;SDS011;46274;47.168;27.604;2022-09-03T18:19:49;10.00;;;2.93;;
60426;SDS011;46274;47.168;27.604;2022-09-03T18:26:14;6.43;;;3.47;;
60426;SDS011;46274;47.168;27.604;2022-09-03T18:32:40;5.27;;;3.30;;
60426;SDS011;46274;47.168;27.604;2022-09-03T18:39:08;6.83;;;3.90;;
60426;SDS011;46274;47.168;27.604;2022-09-03T19:33:05;5.67;;;2.90;;
60426;SDS011;46274;47.168;27.604;2022-09-03T19:46:49;19.67;;;2.77;;
60426;SDS011;46274;47.168;27.604;2022-09-03T19:53:14;6.20;;;2.13;;
60426;SDS011;46274;47.168;27.604;2022-09-03T19:59:38;9.00;;;2.57;;
60426;SDS011;46274;47.168;27.604;2022-09-03T20:06:00;6.13;;;3.00;;
60426;SDS011;46274;47.168;27.604;2022-09-03T20:12:24;7.07;;;3.00;;
60426;SDS011;46274;47.168;27.604;2022-09-03T20:18:50;7.67;;;3.93;;
60426;SDS011;46274;47.168;27.604;2022-09-03T20:25:25;4.87;;;3.20;;
60426;SDS011;46274;47.168;27.604;2022-09-03T20:50:51;11.87;;;3.20;;
60426;SDS011;46274;47.168;27.604;2022-09-03T21:03:24;9.60;;;3.37;;
60426;SDS011;46274;47.168;27.604;2022-09-03T21:09:42;6.13;;;2.50;;
60426;SDS011;46274;47.168;27.604;2022-09-03T21:15:57;5.47;;;2.70;;
60426;SDS011;46274;47.168;27.604;2022-09-03T21:40:42;13.60;;;3.27;;
60426;SDS011;46274;47.168;27.604;2022-09-03T21:46:57;5.37;;;3.13;;
60426;SDS011;46274;47.168;27.604;2022-09-03T21:53:09;10.97;;;2.93;;
60426;SDS011;46274;47.168;27.604;2022-09-03T22:05:20;10.53;;;3.43;;
60426;SDS011;46274;47.168;27.604;2022-09-03T22:11:25;11.00;;;3.40;;
60426;SDS011;46274;47.168;27.604;2022-09-03T22:17:36;9.63;;;3.43;;
60426;SDS011;46274;47.168;27.604;2022-09-03T22:30:08;9.57;;;3.40;;
60426;SDS011;46274;47.168;27.604;2022-09-03T22:42:39;8.13;;;3.47;;
60426;SDS011;46274;47.168;27.604;2022-09-03T23:01:24;6.67;;;3.17;;
60426;SDS011;46274;47.168;27.604;2022-09-03T23:14:04;7.73;;;3.27;;
60426;SDS011;46274;47.168;27.604;2022-09-03T23:20:17;8.50;;;3.27;;
60426;SDS011;46274;47.168;27.604;2022-09-03T23:32:35;6.30;;;3.77;;
60426;SDS011;46274;47.168;27.604;2022-09-03T23:38:51;7.07;;;3.53;;
60426;SDS011;46274;47.168;27.604;2022-09-03T23:45:04;6.20;;;3.33;;
60426;SDS011;46274;47.168;27.604;2022-09-03T23:51:25;7.43;;;3.30;;
60426;SDS011;46274;47.168;27.604;2022-09-03T23:57:39;7.03;;;2.97;;
